createdAt,value
2022-12-18T00:01:34.066Z,34.03
2022-12-18T00:04:06.547Z,32.40
2022-12-18T00:06:35.178Z,33.30
2022-12-18T00:09:05.493Z,33.30
2022-12-18T00:11:33.850Z,32.33
2022-12-18T00:14:02.191Z,32.47
2022-12-18T00:16:33.895Z,31.40
2022-12-18T00:19:02.717Z,32.58
2022-12-18T00:21:32.576Z,32.08
2022-12-18T00:24:01.896Z,32.20
2022-12-18T00:26:34.286Z,31.17
2022-12-18T00:29:03.291Z,31.25
2022-12-18T00:31:33.749Z,32.33
2022-12-18T00:34:02.015Z,32.70
2022-12-18T00:36:32.467Z,32.38
2022-12-18T00:39:01.679Z,31.95
2022-12-18T00:41:48.774Z,31.52
2022-12-18T00:44:18.647Z,31.73
2022-12-18T00:46:47.860Z,31.00
2022-12-18T00:49:16.539Z,33.03
2022-12-18T00:51:44.712Z,30.80
2022-12-18T00:54:13.300Z,33.22
2022-12-18T00:56:49.395Z,30.25
2022-12-18T00:59:17.977Z,30.40
2022-12-18T01:01:46.436Z,30.88
2022-12-18T01:04:14.835Z,30.83
2022-12-18T01:06:42.788Z,29.40
2022-12-18T01:09:10.711Z,28.77
2022-12-18T01:11:38.671Z,30.75
2022-12-18T01:14:08.154Z,28.65
2022-12-18T01:16:36.444Z,30.17
2022-12-18T01:19:04.471Z,29.63
2022-12-18T01:21:32.542Z,28.73
2022-12-18T01:24:00.492Z,29.33
2022-12-18T01:26:30.558Z,29.00
2022-12-18T01:28:59.129Z,30.27
2022-12-18T01:31:31.060Z,31.30
2022-12-18T01:33:59.511Z,28.70
2022-12-18T01:36:29.477Z,31.25
2022-12-18T01:38:58.130Z,30.23
2022-12-18T01:41:49.606Z,28.52
2022-12-18T01:44:55.080Z,28.50
2022-12-18T01:47:27.470Z,29.60
2022-12-18T01:49:56.449Z,31.13
2022-12-18T01:52:26.735Z,28.55
2022-12-18T01:54:56.223Z,28.33
2022-12-18T01:57:25.441Z,27.97
2022-12-18T01:59:58.979Z,29.05
2022-12-18T02:02:29.811Z,28.50
2022-12-18T02:04:57.880Z,27.25
2022-12-18T02:07:36.168Z,29.27
2022-12-18T02:10:13.250Z,27.07
2022-12-18T02:12:47.709Z,27.88
2022-12-18T02:15:21.160Z,29.40
2022-12-18T02:17:56.536Z,28.45
2022-12-18T02:20:30.289Z,26.65
2022-12-18T02:23:10.222Z,26.50
2022-12-18T02:25:59.658Z,25.13
2022-12-18T02:28:33.771Z,27.20
2022-12-18T02:31:05.032Z,25.80
2022-12-18T02:33:34.627Z,25.83
2022-12-18T02:36:03.623Z,27.40
2022-12-18T02:38:32.888Z,26.50
2022-12-18T02:41:02.542Z,25.40
2022-12-18T02:43:32.275Z,26.00
2022-12-18T02:46:01.795Z,26.52
2022-12-18T02:48:33.051Z,25.05
2022-12-18T02:51:06.174Z,26.15
2022-12-18T02:53:42.463Z,26.35
2022-12-18T02:56:16.886Z,25.40
2022-12-18T02:58:54.577Z,25.58
2022-12-18T03:01:28.724Z,25.25
2022-12-18T03:04:01.744Z,26.58
2022-12-18T03:06:34.049Z,24.60
2022-12-18T03:09:06.273Z,23.67
2022-12-18T03:11:54.243Z,25.10
2022-12-18T03:14:25.452Z,25.60
2022-12-18T03:16:56.741Z,24.13
2022-12-18T03:19:27.939Z,25.20
2022-12-18T03:21:58.160Z,26.42
2022-12-18T03:24:28.689Z,24.17
2022-12-18T03:27:00.668Z,24.23
2022-12-18T03:29:35.855Z,24.27
2022-12-18T03:32:13.843Z,25.85
2022-12-18T03:34:44.343Z,24.70
2022-12-18T03:37:12.364Z,24.92
2022-12-18T03:39:40.336Z,25.23
2022-12-18T03:42:12.733Z,23.65
2022-12-18T03:44:47.097Z,25.25
2022-12-18T03:47:19.160Z,25.60
2022-12-18T03:49:52.739Z,26.88
2022-12-18T03:52:27.204Z,27.60
2022-12-18T03:54:57.808Z,25.67
2022-12-18T03:57:30.539Z,27.33
2022-12-18T04:00:05.177Z,27.90
2022-12-18T04:02:35.397Z,28.08
2022-12-18T04:05:06.907Z,28.38
2022-12-18T04:07:35.582Z,29.17
2022-12-18T04:10:05.430Z,27.85
2022-12-18T04:12:33.405Z,28.05
2022-12-18T04:15:02.945Z,28.98
2022-12-18T04:17:30.951Z,28.15
2022-12-18T04:19:58.889Z,27.83
2022-12-18T04:22:26.948Z,27.98
2022-12-18T04:24:54.915Z,30.67
2022-12-18T04:27:23.740Z,31.50
2022-12-18T04:29:51.720Z,29.33
2022-12-18T04:32:21.030Z,30.40
2022-12-18T04:34:49.077Z,29.08
2022-12-18T04:37:17.100Z,28.55
2022-12-18T04:39:45.016Z,27.95
2022-12-18T04:42:12.986Z,29.02
2022-12-18T04:44:40.921Z,29.00
2022-12-18T04:47:09.026Z,29.73
2022-12-18T04:49:38.359Z,28.35
2022-12-18T04:52:06.546Z,30.02
2022-12-18T04:54:34.511Z,29.88
2022-12-18T04:57:02.541Z,30.88
2022-12-18T04:59:30.620Z,29.40
2022-12-18T05:01:58.738Z,29.75
2022-12-18T05:04:26.891Z,29.23
2022-12-18T05:06:56.207Z,27.10
2022-12-18T05:09:24.792Z,28.63
2022-12-18T05:11:52.728Z,28.15
2022-12-18T05:14:20.859Z,28.13
2022-12-18T05:16:48.827Z,27.17
2022-12-18T05:19:16.804Z,27.15
2022-12-18T05:21:44.758Z,24.58
2022-12-18T05:24:15.393Z,26.63
2022-12-18T05:26:44.085Z,24.77
2022-12-18T05:29:13.216Z,27.85
2022-12-18T05:31:42.792Z,25.45
2022-12-18T05:34:11.467Z,25.80
2022-12-18T05:36:39.545Z,25.67
2022-12-18T05:39:07.596Z,25.03
2022-12-18T05:41:37.112Z,25.95
2022-12-18T05:44:05.265Z,25.67
2022-12-18T05:46:34.240Z,27.02
2022-12-18T05:49:02.783Z,25.73
2022-12-18T05:51:30.684Z,24.27
2022-12-18T05:53:58.645Z,24.35
2022-12-18T05:56:26.640Z,24.25
2022-12-18T05:58:56.665Z,24.15
2022-12-18T06:01:26.431Z,23.52
2022-12-18T06:03:54.981Z,23.42
2022-12-18T06:06:25.560Z,23.67
2022-12-18T06:08:54.728Z,24.08
2022-12-18T06:11:25.003Z,23.33
2022-12-18T06:13:58.772Z,25.08
2022-12-18T06:16:27.540Z,23.60
2022-12-18T06:18:55.770Z,22.13
2022-12-18T06:21:23.704Z,21.30
2022-12-18T06:23:51.693Z,22.00
2022-12-18T06:26:24.670Z,22.58
2022-12-18T06:28:57.315Z,22.33
2022-12-18T06:31:25.796Z,21.67
2022-12-18T06:33:54.935Z,23.17
2022-12-18T06:36:23.135Z,21.80
2022-12-18T06:38:51.203Z,20.17
2022-12-18T06:41:22.042Z,23.45
2022-12-18T06:43:50.258Z,21.88
2022-12-18T06:46:19.640Z,22.58
2022-12-18T06:48:50.727Z,22.40
2022-12-18T06:51:23.417Z,20.52
2022-12-18T06:53:51.759Z,20.67
2022-12-18T06:56:19.849Z,22.25
2022-12-18T06:58:47.847Z,21.25
2022-12-18T07:01:16.224Z,22.83
2022-12-18T07:03:45.961Z,21.83
2022-12-18T07:06:19.279Z,22.25
2022-12-18T07:08:48.104Z,21.80
2022-12-18T07:11:16.777Z,23.33
2022-12-18T07:13:45.469Z,22.67
2022-12-18T07:16:20.793Z,22.73
2022-12-18T07:18:51.801Z,24.05
2022-12-18T07:21:21.502Z,23.13
2022-12-18T07:23:49.779Z,24.02
2022-12-18T07:26:19.964Z,22.90
2022-12-18T07:28:48.149Z,22.35
2022-12-18T07:31:18.227Z,23.70
2022-12-18T07:33:46.831Z,23.55
2022-12-18T07:36:16.458Z,22.85
2022-12-18T07:38:44.539Z,21.70
2022-12-18T07:41:15.197Z,22.27
2022-12-18T07:43:44.429Z,22.80
2022-12-18T07:46:14.671Z,21.98
2022-12-18T07:48:44.672Z,23.90
2022-12-18T07:51:19.853Z,22.50
2022-12-18T07:53:49.275Z,22.10
2022-12-18T07:56:29.591Z,21.67
2022-12-18T07:58:59.029Z,21.88
2022-12-18T08:01:27.269Z,20.60
2022-12-18T08:03:55.354Z,22.40
2022-12-18T08:06:25.087Z,22.20
2022-12-18T08:08:54.394Z,22.48
2022-12-18T08:11:22.612Z,22.67
2022-12-18T08:13:50.567Z,23.60
2022-12-18T08:16:19.430Z,23.63
2022-12-18T08:18:48.144Z,23.77
2022-12-18T08:21:21.906Z,21.20
2022-12-18T08:23:52.045Z,21.63
2022-12-18T08:26:21.122Z,20.50
2022-12-18T08:28:50.075Z,20.55
2022-12-18T08:31:19.502Z,20.55
2022-12-18T08:33:47.738Z,20.63
2022-12-18T08:36:15.644Z,19.83
2022-12-18T08:38:43.599Z,20.80
2022-12-18T08:41:16.993Z,20.20
2022-12-18T08:44:01.750Z,19.90
2022-12-18T08:46:35.949Z,19.48
2022-12-18T08:49:04.099Z,19.67
2022-12-18T08:51:32.120Z,19.50
2022-12-18T08:54:00.231Z,19.45
2022-12-18T08:56:30.869Z,19.58
2022-12-18T08:58:58.954Z,18.83
2022-12-18T09:01:27.194Z,18.27
2022-12-18T09:03:55.198Z,19.35
2022-12-18T09:06:24.799Z,18.33
2022-12-18T09:08:52.812Z,18.55
2022-12-18T09:11:24.181Z,17.30
2022-12-18T09:13:54.830Z,18.30
2022-12-18T09:16:27.357Z,18.45
2022-12-18T09:19:01.271Z,18.48
2022-12-18T09:21:30.692Z,17.90
2022-12-18T09:23:59.041Z,17.38
2022-12-18T09:26:27.956Z,16.50
2022-12-18T09:28:57.351Z,17.08
2022-12-18T09:31:26.233Z,17.65
2022-12-18T09:33:54.210Z,17.10
2022-12-18T09:36:22.128Z,17.55
2022-12-18T09:38:50.090Z,17.63
2022-12-18T09:41:41.664Z,16.77
2022-12-18T09:44:19.926Z,17.10
2022-12-18T09:46:54.660Z,18.40
2022-12-18T09:49:25.667Z,17.98
2022-12-18T09:51:58.127Z,16.63
2022-12-18T09:54:28.585Z,16.20
2022-12-18T09:56:57.241Z,16.95
2022-12-18T09:59:31.845Z,17.98
2022-12-18T10:02:00.001Z,17.70
2022-12-18T10:04:32.626Z,17.13
2022-12-18T10:07:09.341Z,17.10
2022-12-18T10:09:43.158Z,17.63
2022-12-18T10:12:19.717Z,17.60
2022-12-18T10:14:57.294Z,18.60
2022-12-18T10:17:34.724Z,18.52
2022-12-18T10:20:07.012Z,18.23
2022-12-18T10:22:45.439Z,17.40
2022-12-18T10:25:23.793Z,18.27
2022-12-18T10:27:55.405Z,20.10
2022-12-18T10:30:27.003Z,17.30
2022-12-18T10:32:55.243Z,18.08
2022-12-18T10:35:25.969Z,18.27
2022-12-18T10:38:07.657Z,17.33
2022-12-18T10:40:50.903Z,18.70
2022-12-18T10:43:23.967Z,16.13
2022-12-18T10:46:15.540Z,17.90
2022-12-18T10:48:56.236Z,18.70
2022-12-18T10:51:26.999Z,17.73
2022-12-18T10:53:58.966Z,17.50
2022-12-18T10:56:29.359Z,17.60
2022-12-18T10:59:02.786Z,18.15
2022-12-18T11:01:48.751Z,18.75
2022-12-18T11:04:20.846Z,18.85
2022-12-18T11:07:00.460Z,17.90
2022-12-18T11:09:30.164Z,18.35
2022-12-18T11:12:00.847Z,19.02
2022-12-18T11:14:30.879Z,18.80
2022-12-18T11:19:55.977Z,18.42
2022-12-18T11:22:27.394Z,18.98
2022-12-18T11:27:51.236Z,20.08
2022-12-18T11:30:25.024Z,19.85
2022-12-18T11:32:57.874Z,19.50
2022-12-18T11:35:37.473Z,20.92
2022-12-18T11:38:12.885Z,19.90
2022-12-18T11:40:44.151Z,19.73
2022-12-18T11:43:16.813Z,20.77
2022-12-18T11:45:51.761Z,19.20
2022-12-18T11:48:25.860Z,20.50
2022-12-18T11:50:55.874Z,19.80
2022-12-18T11:53:25.546Z,22.17
2022-12-18T11:56:10.797Z,21.02
2022-12-18T11:58:48.295Z,22.27
2022-12-18T12:01:40.381Z,21.90
2022-12-18T12:04:26.844Z,20.65
2022-12-18T12:07:08.849Z,20.87
2022-12-18T12:09:42.131Z,19.27
2022-12-18T12:12:30.026Z,19.50
2022-12-18T12:15:08.332Z,18.30
2022-12-18T12:17:42.972Z,18.70
2022-12-18T12:20:21.522Z,18.90
2022-12-18T12:22:57.119Z,19.67
2022-12-18T12:25:37.658Z,18.83
2022-12-18T12:28:21.424Z,20.33
2022-12-18T12:31:01.574Z,18.20
2022-12-18T12:33:40.162Z,18.17
2022-12-18T12:36:20.298Z,18.52
2022-12-18T12:38:52.429Z,18.48
2022-12-18T12:41:41.988Z,17.13
2022-12-18T12:44:15.334Z,18.42
2022-12-18T12:46:45.802Z,17.02
2022-12-18T12:49:17.244Z,18.08
2022-12-18T12:51:52.883Z,17.38
2022-12-18T12:54:24.939Z,17.33
2022-12-18T12:56:59.934Z,19.23
2022-12-18T12:59:33.597Z,18.90
2022-12-18T13:02:08.102Z,17.75
2022-12-18T13:04:42.178Z,18.27
2022-12-18T13:07:18.325Z,18.60
2022-12-18T13:10:15.269Z,19.08
2022-12-18T13:12:59.352Z,17.83
2022-12-18T13:15:32.632Z,19.05
2022-12-18T13:18:20.291Z,19.05
2022-12-18T13:20:55.233Z,17.93
2022-12-18T13:23:34.308Z,19.35
2022-12-18T13:26:33.933Z,18.05
2022-12-18T13:29:05.166Z,19.00
2022-12-18T13:32:20.951Z,17.27
2022-12-18T13:34:50.523Z,18.75
2022-12-18T13:37:44.900Z,18.33
2022-12-18T13:40:56.508Z,18.05
2022-12-18T13:43:41.531Z,17.55
2022-12-18T13:46:24.628Z,17.38
2022-12-18T13:48:57.141Z,17.85
2022-12-18T13:51:26.143Z,18.20
2022-12-18T13:53:57.077Z,18.75
2022-12-18T13:56:26.935Z,17.55
2022-12-18T13:59:16.029Z,18.83
2022-12-18T14:01:46.311Z,18.90
2022-12-18T14:04:20.596Z,18.90
2022-12-18T14:06:49.668Z,19.77
2022-12-18T14:09:21.530Z,18.90
2022-12-18T14:11:51.298Z,20.90
2022-12-18T14:14:21.794Z,24.15
2022-12-18T14:16:52.971Z,28.02
2022-12-18T14:19:21.092Z,30.30
2022-12-18T14:21:50.216Z,30.83
2022-12-18T14:24:20.236Z,30.50
2022-12-18T14:26:50.516Z,29.70
2022-12-18T14:29:28.824Z,29.25
2022-12-18T14:32:17.516Z,28.52
2022-12-18T14:34:46.679Z,25.67
2022-12-18T14:37:17.097Z,22.40
2022-12-18T14:39:59.067Z,23.50
2022-12-18T14:42:29.256Z,23.05
2022-12-18T14:45:41.770Z,22.45
2022-12-18T14:48:14.889Z,21.52
2022-12-18T14:50:47.242Z,20.88
2022-12-18T14:53:24.617Z,20.98
2022-12-18T14:55:53.174Z,20.45
2022-12-18T14:58:21.324Z,19.40
2022-12-18T15:00:50.765Z,19.92
2022-12-18T15:03:22.231Z,19.23
2022-12-18T15:05:51.355Z,19.00
2022-12-18T15:08:36.500Z,19.27
2022-12-18T15:11:09.019Z,18.17
2022-12-18T15:13:41.407Z,18.83
2022-12-18T15:16:14.795Z,19.25
2022-12-18T15:18:46.070Z,20.63
2022-12-18T15:21:19.935Z,20.00
2022-12-18T15:23:52.071Z,17.75
2022-12-18T15:26:22.086Z,19.30
2022-12-18T15:28:51.790Z,18.93
2022-12-18T15:31:29.881Z,17.95
2022-12-18T15:34:15.956Z,17.10
2022-12-18T15:36:43.964Z,18.90
2022-12-18T15:39:14.527Z,18.60
2022-12-18T15:42:02.734Z,17.58
2022-12-18T15:44:29.796Z,17.42
2022-12-18T15:47:02.260Z,19.87
2022-12-18T15:49:30.296Z,19.08
2022-12-18T15:52:01.225Z,18.08
2022-12-18T15:54:46.760Z,19.07
2022-12-18T15:57:27.463Z,18.60
2022-12-18T15:59:58.984Z,19.30
2022-12-18T16:02:29.430Z,18.75
2022-12-18T16:04:57.851Z,19.58
2022-12-18T16:07:28.186Z,18.38
2022-12-18T16:09:58.882Z,18.67
2022-12-18T16:12:28.330Z,18.83
2022-12-18T16:14:56.284Z,20.08
2022-12-18T16:17:24.204Z,20.10
2022-12-18T16:19:53.584Z,19.25
2022-12-18T16:22:23.715Z,19.15
2022-12-18T16:24:52.804Z,19.08
2022-12-18T16:27:21.492Z,17.90
2022-12-18T16:29:49.711Z,19.60
2022-12-18T16:32:19.717Z,19.63
2022-12-18T16:34:48.452Z,21.05
2022-12-18T16:37:18.564Z,23.90
2022-12-18T16:39:46.675Z,26.27
2022-12-18T16:42:17.531Z,25.38
2022-12-18T16:44:46.031Z,21.80
2022-12-18T16:47:14.986Z,21.33
2022-12-18T16:49:45.231Z,22.30
2022-12-18T16:52:13.508Z,20.35
2022-12-18T16:54:42.877Z,20.65
2022-12-18T16:57:14.172Z,20.23
2022-12-18T16:59:42.196Z,20.52
2022-12-18T17:02:17.109Z,20.08
2022-12-18T17:04:47.667Z,19.60
2022-12-18T17:07:16.350Z,18.98
2022-12-18T17:09:45.796Z,19.70
2022-12-18T17:12:13.807Z,20.55
2022-12-18T17:14:41.811Z,20.30
2022-12-18T17:17:25.141Z,19.35
2022-12-18T17:19:53.528Z,19.60
2022-12-18T17:22:23.128Z,19.20
2022-12-18T17:24:52.520Z,18.38
2022-12-18T17:27:20.498Z,17.92
2022-12-18T17:29:49.116Z,19.40
2022-12-18T17:32:17.889Z,18.92
2022-12-18T17:34:46.075Z,18.65
2022-12-18T17:37:14.425Z,20.15
2022-12-18T17:39:43.083Z,19.33
2022-12-18T17:42:15.557Z,18.77
2022-12-18T17:44:44.293Z,19.20
2022-12-18T17:47:13.109Z,19.45
2022-12-18T17:49:41.305Z,20.20
2022-12-18T17:52:09.369Z,18.45
2022-12-18T17:54:39.754Z,19.58
2022-12-18T17:57:07.983Z,19.05
2022-12-18T17:59:37.310Z,20.58
2022-12-18T18:02:05.618Z,20.70
2022-12-18T18:04:34.474Z,19.23
2022-12-18T18:07:02.997Z,20.08
2022-12-18T18:09:31.119Z,19.63
2022-12-18T18:12:16.688Z,21.35
2022-12-18T18:14:46.188Z,20.40
2022-12-18T18:17:14.128Z,20.77
2022-12-18T18:19:42.757Z,20.30
2022-12-18T18:22:15.554Z,19.90
2022-12-18T18:24:44.155Z,19.48
2022-12-18T18:27:12.169Z,21.67
2022-12-18T18:29:41.165Z,21.40
2022-12-18T18:32:10.466Z,21.00
2022-12-18T18:34:41.477Z,20.53
2022-12-18T18:37:10.536Z,19.95
2022-12-18T18:39:38.551Z,20.67
2022-12-18T18:42:06.977Z,23.60
2022-12-18T18:44:35.140Z,23.10
2022-12-18T18:47:04.248Z,24.25
2022-12-18T18:49:36.306Z,21.95
2022-12-18T18:52:04.255Z,22.83
2022-12-18T18:54:32.235Z,22.02
2022-12-18T18:59:48.354Z,21.30
2022-12-18T19:02:17.393Z,21.13
2022-12-18T19:04:47.286Z,21.77
2022-12-18T19:07:25.607Z,21.73
2022-12-18T19:10:00.044Z,20.25
2022-12-18T19:12:50.031Z,21.17
2022-12-18T19:15:18.039Z,20.48
2022-12-18T19:17:47.028Z,20.50
2022-12-18T19:20:17.207Z,21.00
2022-12-18T19:22:49.696Z,20.50
2022-12-18T19:25:37.141Z,21.08
2022-12-18T19:28:09.448Z,21.05
2022-12-18T19:30:54.541Z,20.10
2022-12-18T19:33:43.239Z,19.90
2022-12-18T19:36:15.713Z,20.70
2022-12-18T19:38:44.935Z,21.85
2022-12-18T19:41:13.929Z,21.05
2022-12-18T19:43:42.757Z,22.25
2022-12-18T19:46:14.072Z,21.13
2022-12-18T19:48:42.530Z,21.48
2022-12-18T19:51:15.851Z,22.40
2022-12-18T19:53:44.512Z,22.55
2022-12-18T19:56:15.207Z,24.20
2022-12-18T19:58:44.094Z,21.92
2022-12-18T20:01:12.803Z,23.35
2022-12-18T20:03:41.969Z,23.40
2022-12-18T20:06:12.010Z,24.10
2022-12-18T20:08:41.964Z,22.38
2022-12-18T20:11:09.958Z,22.00
2022-12-18T20:13:38.341Z,20.65
2022-12-18T20:16:06.960Z,22.60
2022-12-18T20:18:34.999Z,22.27
2022-12-18T20:21:03.817Z,23.70
2022-12-18T20:23:33.205Z,22.30
2022-12-18T20:26:04.374Z,24.10
2022-12-18T20:28:34.731Z,24.60
2022-12-18T20:31:03.586Z,24.60
2022-12-18T20:33:31.751Z,23.40
2022-12-18T20:36:03.957Z,23.63
2022-12-18T20:38:32.066Z,24.90
2022-12-18T20:41:02.292Z,23.52
2022-12-18T20:43:31.796Z,24.60
2022-12-18T20:46:04.216Z,23.95
2022-12-18T20:48:32.884Z,24.75
2022-12-18T20:51:03.802Z,24.58
2022-12-18T20:53:32.962Z,22.92
2022-12-18T20:56:02.182Z,23.35
2022-12-18T20:58:31.532Z,23.65
2022-12-18T21:01:09.283Z,23.45
2022-12-18T21:03:41.496Z,22.50
2022-12-18T21:06:10.706Z,22.98
2022-12-18T21:08:39.988Z,23.80
2022-12-18T21:11:36.439Z,23.60
2022-12-18T21:14:07.896Z,23.95
2022-12-18T21:16:36.194Z,23.95
2022-12-18T21:19:04.300Z,23.97
2022-12-18T21:21:37.998Z,22.45
2022-12-18T21:24:07.645Z,23.77
2022-12-18T21:26:39.216Z,23.45
2022-12-18T21:29:13.789Z,23.75
2022-12-18T21:31:41.986Z,21.77
2022-12-18T21:34:15.200Z,23.50
2022-12-18T21:36:43.211Z,23.65
2022-12-18T21:39:11.303Z,23.10
2022-12-18T21:41:56.709Z,23.50
2022-12-18T21:44:26.144Z,22.55
2022-12-18T21:46:58.370Z,23.65
2022-12-18T21:49:32.018Z,22.63
2022-12-18T21:52:01.308Z,22.67
2022-12-18T21:54:30.266Z,23.00
2022-12-18T21:56:59.482Z,24.42
2022-12-18T21:59:30.595Z,22.80
2022-12-18T22:02:00.859Z,24.13
2022-12-18T22:04:29.678Z,23.58
2022-12-18T22:06:57.790Z,22.13
2022-12-18T22:09:26.574Z,22.58
2022-12-18T22:11:54.896Z,23.13
2022-12-18T22:14:23.221Z,21.65
2022-12-18T22:16:53.473Z,23.08
2022-12-18T22:19:21.550Z,22.17
2022-12-18T22:21:50.641Z,21.98
2022-12-18T22:24:20.330Z,22.13
2022-12-18T22:26:48.918Z,21.77
2022-12-18T22:29:37.134Z,22.23
2022-12-18T22:32:07.928Z,23.43
2022-12-18T22:34:38.539Z,21.95
2022-12-18T22:37:06.728Z,23.17
2022-12-18T22:39:34.843Z,23.53
2022-12-18T22:42:10.818Z,21.60
2022-12-18T22:44:38.717Z,23.92
2022-12-18T22:47:08.227Z,22.23
2022-12-18T22:49:36.547Z,20.93
2022-12-18T22:52:05.286Z,23.20
2022-12-18T22:54:33.268Z,23.30
2022-12-18T22:57:01.206Z,23.52
2022-12-18T22:59:29.175Z,22.92
2022-12-18T23:01:59.038Z,20.98
2022-12-18T23:04:36.277Z,23.50
2022-12-18T23:07:05.082Z,22.83
2022-12-18T23:09:33.658Z,22.38
2022-12-18T23:12:02.208Z,23.00
2022-12-18T23:14:30.738Z,22.00
2022-12-18T23:16:58.995Z,21.80
2022-12-18T23:19:29.061Z,22.52
2022-12-18T23:21:58.802Z,21.67
2022-12-18T23:24:27.168Z,23.13
2022-12-18T23:26:55.217Z,21.00
2022-12-18T23:29:23.201Z,21.50
2022-12-18T23:31:51.207Z,21.63
2022-12-18T23:34:19.195Z,22.23
2022-12-18T23:36:52.021Z,21.67
2022-12-18T23:39:28.685Z,22.83
2022-12-18T23:41:58.050Z,21.00
2022-12-18T23:44:26.163Z,22.08
2022-12-18T23:46:54.296Z,21.13
2022-12-18T23:49:22.376Z,20.77
2022-12-18T23:51:52.189Z,21.10
2022-12-18T23:54:30.189Z,21.67
2022-12-18T23:57:01.796Z,20.83
2022-12-18T23:59:29.741Z,20.90
